Time;durP1;ratioP1;P1;durP2;ratioP2;P2;SDS_P1;SDS_P2;PMS_P1;PMS_P2;Temp;Humidity;BMP_temperature;BMP_pressure;BME280_temperature;BME280_humidity;BME280_pressure;Samples;Min_cycle;Max_cycle;Signal;HPM_P1;HPM_P2
2023/05/01 00:02:22;;;;;;;9.65;6.75;;;;;;;;;;5032508;28;20038;-73
2023/05/01 00:04:49;;;;;;;10.35;6.57;;;;;;;;;;4996907;28;20126;-72
2023/05/01 00:07:15;;;;;;;12.05;6.82;;;;;;;;;;5028972;28;20116;-72
2023/05/01 00:09:40;;;;;;;12.60;7.45;;;;;;;;;;4996174;28;20046;-72
2023/05/01 00:12:05;;;;;;;11.48;7.20;;;;;;;;;;5005288;28;20037;-72
2023/05/01 00:14:31;;;;;;;10.10;6.90;;;;;;;;;;4994820;28;20734;-73
2023/05/01 00:16:58;;;;;;;12.13;7.43;;;;;;;;;;4998384;28;20036;-73
2023/05/01 00:19:23;;;;;;;13.93;7.05;;;;;;;;;;5001504;28;20675;-73
2023/05/01 00:21:51;;;;;;;13.63;7.63;;;;;;;;;;4999530;28;20034;-74
2023/05/01 00:24:19;;;;;;;11.25;6.80;;;;;;;;;;4999813;28;20507;-73
2023/05/01 00:26:44;;;;;;;11.13;6.75;;;;;;;;;;5005048;28;20112;-73
2023/05/01 00:29:09;;;;;;;11.40;6.78;;;;;;;;;;5002929;28;20129;-72
2023/05/01 00:31:35;;;;;;;11.13;6.35;;;;;;;;;;5036704;28;20113;-71
2023/05/01 00:34:04;;;;;;;12.23;5.88;;;;;;;;;;5005659;28;20060;-73
2023/05/01 00:36:30;;;;;;;9.27;5.72;;;;;;;;;;5024410;28;20033;-74
2023/05/01 00:38:57;;;;;;;10.60;5.97;;;;;;;;;;5022761;28;20037;-73
2023/05/01 00:41:23;;;;;;;11.23;6.03;;;;;;;;;;5055729;28;20040;-74
2023/05/01 00:43:53;;;;;;;10.63;5.60;;;;;;;;;;5053286;28;20081;-73
2023/05/01 00:46:18;;;;;;;9.05;5.75;;;;;;;;;;5021769;28;20037;-73
2023/05/01 00:48:44;;;;;;;10.18;5.35;;;;;;;;;;5054029;28;20037;-74
2023/05/01 00:51:12;;;;;;;8.93;5.32;;;;;;;;;;5057266;28;20033;-72
2023/05/01 00:53:38;;;;;;;9.45;5.18;;;;;;;;;;5054352;28;20577;-73
2023/05/01 00:56:05;;;;;;;9.85;4.85;;;;;;;;;;5041979;28;20068;-74
2023/05/01 00:58:32;;;;;;;23.15;5.47;;;;;;;;;;5059050;28;20053;-74
2023/05/01 01:01:00;;;;;;;9.63;5.53;;;;;;;;;;5056283;28;20068;-74
2023/05/01 01:03:29;;;;;;;9.50;4.97;;;;;;;;;;5033208;28;20072;-74
2023/05/01 01:06:08;;;;;;;9.15;4.95;;;;;;;;;;5024277;28;20071;-73
2023/05/01 01:08:45;;;;;;;13.52;5.28;;;;;;;;;;5020438;28;20087;-73
2023/05/01 01:11:22;;;;;;;11.02;5.07;;;;;;;;;;5019620;28;20457;-73
2023/05/01 01:13:53;;;;;;;11.93;5.38;;;;;;;;;;5024373;28;20056;-72
2023/05/01 01:16:21;;;;;;;11.50;4.53;;;;;;;;;;5054876;28;20069;-74
2023/05/01 01:18:54;;;;;;;12.02;5.40;;;;;;;;;;5055235;28;20099;-73
2023/05/01 01:21:26;;;;;;;12.00;5.13;;;;;;;;;;5054029;28;20128;-72
2023/05/01 01:23:51;;;;;;;;;;;;;;;;;;5057608;28;20040;-72
2023/05/01 01:26:35;;;;;;;9.85;5.00;;;;;;;;;;5025750;28;20450;-73
2023/05/01 01:29:06;;;;;;;10.18;4.88;;;;;;;;;;5024766;28;20044;-73
2023/05/01 01:31:49;;;;;;;8.38;4.40;;;;;;;;;;5044295;28;20040;-73
2023/05/01 01:34:17;;;;;;;9.52;4.55;;;;;;;;;;5023023;28;20049;-73
2023/05/01 01:36:54;;;;;;;7.25;4.80;;;;;;;;;;5045738;28;20582;-73
2023/05/01 01:39:33;;;;;;;10.95;5.40;;;;;;;;;;5039780;28;20055;-72
2023/05/01 01:42:08;;;;;;;12.73;5.25;;;;;;;;;;5051435;28;20036;-72
2023/05/01 01:44:39;;;;;;;7.97;4.82;;;;;;;;;;5021971;28;20037;-73
2023/05/01 01:47:06;;;;;;;11.48;5.45;;;;;;;;;;5025529;28;20452;-72
2023/05/01 01:49:31;;;;;;;7.65;4.65;;;;;;;;;;5036458;28;20100;-73
2023/05/01 01:51:57;;;;;;;12.95;5.18;;;;;;;;;;5021523;28;20033;-72
2023/05/01 01:54:26;;;;;;;9.02;4.95;;;;;;;;;;5038549;28;20060;-72
2023/05/01 01:56:52;;;;;;;9.52;4.78;;;;;;;;;;5026789;28;20034;-74
2023/05/01 01:59:18;;;;;;;9.85;4.85;;;;;;;;;;5055670;28;20040;-74
2023/05/01 02:01:45;;;;;;;10.00;5.60;;;;;;;;;;5029358;28;20125;-74
2023/05/01 02:04:12;;;;;;;10.68;5.60;;;;;;;;;;5031353;28;20109;-73
2023/05/01 02:06:38;;;;;;;13.23;5.95;;;;;;;;;;5041071;28;20625;-73
2023/05/01 02:09:05;;;;;;;13.60;5.50;;;;;;;;;;5020640;28;20040;-72
2023/05/01 02:11:33;;;;;;;9.05;5.63;;;;;;;;;;5024989;28;20033;-72
2023/05/01 02:14:00;;;;;;;13.90;6.30;;;;;;;;;;5030601;28;20048;-72
2023/05/01 02:16:26;;;;;;;12.07;5.80;;;;;;;;;;5026920;28;20298;-73
2023/05/01 02:18:54;;;;;;;14.40;6.18;;;;;;;;;;5019372;28;20048;-74
2023/05/01 02:21:21;;;;;;;10.77;4.88;;;;;;;;;;5015806;28;20037;-73
2023/05/01 02:23:47;;;;;;;11.18;5.53;;;;;;;;;;5015119;28;20037;-73
2023/05/01 02:26:18;;;;;;;9.02;4.97;;;;;;;;;;5015215;28;20099;-75
2023/05/01 02:28:44;;;;;;;8.55;4.88;;;;;;;;;;5046900;28;20077;-73
2023/05/01 02:31:12;;;;;;;13.13;4.90;;;;;;;;;;5014486;28;20047;-74
2023/05/01 02:33:37;;;;;;;11.48;5.00;;;;;;;;;;5018366;28;20359;-74
2023/05/01 02:36:05;;;;;;;9.25;4.85;;;;;;;;;;5048739;28;20034;-73
2023/05/01 02:38:30;;;;;;;8.10;4.90;;;;;;;;;;5018325;28;20025;-75
2023/05/01 02:40:58;;;;;;;7.78;4.90;;;;;;;;;;5017547;28;20047;-74
2023/05/01 02:43:25;;;;;;;9.45;4.93;;;;;;;;;;5027551;28;20148;-74
2023/05/01 02:45:52;;;;;;;9.82;5.05;;;;;;;;;;5019948;28;20292;-73
2023/05/01 02:48:20;;;;;;;8.15;4.95;;;;;;;;;;5047724;28;20136;-72
2023/05/01 02:50:47;;;;;;;13.20;5.32;;;;;;;;;;5019316;28;20036;-73
2023/05/01 02:53:15;;;;;;;8.05;4.93;;;;;;;;;;5016918;28;20502;-73
2023/05/01 02:55:41;;;;;;;10.25;4.88;;;;;;;;;;5023411;28;20041;-73
2023/05/01 02:58:07;;;;;;;8.45;4.65;;;;;;;;;;5019465;28;20061;-73
2023/05/01 03:00:34;;;;;;;10.40;4.88;;;;;;;;;;5023455;28;20503;-73
2023/05/01 03:02:59;;;;;;;9.55;5.53;;;;;;;;;;5022284;28;20033;-73
2023/05/01 03:05:24;;;;;;;10.95;5.57;;;;;;;;;;5024722;28;20497;-73
2023/05/01 03:07:50;;;;;;;10.05;5.50;;;;;;;;;;5020185;28;20029;-73
2023/05/01 03:10:17;;;;;;;9.88;5.45;;;;;;;;;;5028323;28;20100;-74
2023/05/01 03:12:43;;;;;;;16.23;6.45;;;;;;;;;;5015919;28;20034;-75
2023/05/01 03:15:08;;;;;;;12.57;5.80;;;;;;;;;;5021326;28;20126;-74
2023/05/01 03:17:36;;;;;;;10.38;5.68;;;;;;;;;;5048535;28;20138;-74
2023/05/01 03:20:05;;;;;;;16.48;6.13;;;;;;;;;;5013161;28;20509;-73
2023/05/01 03:22:31;;;;;;;10.88;6.07;;;;;;;;;;5010019;28;20037;-74
2023/05/01 03:24:57;;;;;;;12.55;6.15;;;;;;;;;;5012874;28;20037;-74
2023/05/01 03:27:22;;;;;;;13.13;6.32;;;;;;;;;;5017120;28;20048;-74
2023/05/01 03:29:48;;;;;;;13.85;6.18;;;;;;;;;;5013954;28;20052;-74
2023/05/01 03:32:15;;;;;;;18.50;7.22;;;;;;;;;;5017053;28;20505;-72
2023/05/01 03:34:40;;;;;;;14.75;6.90;;;;;;;;;;5048728;28;20539;-73
2023/05/01 03:37:06;;;;;;;15.55;6.97;;;;;;;;;;5050010;28;20046;-72
2023/05/01 03:39:31;;;;;;;14.90;7.32;;;;;;;;;;5016604;28;20581;-74
2023/05/01 03:41:57;;;;;;;17.27;7.78;;;;;;;;;;5045028;28;20051;-73
2023/05/01 03:44:25;;;;;;;17.55;7.18;;;;;;;;;;5016973;28;20033;-73
2023/05/01 03:46:50;;;;;;;13.52;6.63;;;;;;;;;;5016184;28;20048;-74
2023/05/01 03:49:16;;;;;;;15.48;6.40;;;;;;;;;;5052102;28;20379;-73
2023/05/01 03:51:41;;;;;;;10.30;5.47;;;;;;;;;;5020877;28;20064;-74
2023/05/01 03:54:06;;;;;;;11.40;5.30;;;;;;;;;;5019591;28;20130;-75
2023/05/01 03:56:34;;;;;;;12.15;5.60;;;;;;;;;;5027354;28;20080;-74
2023/05/01 03:59:02;;;;;;;12.30;5.13;;;;;;;;;;5025516;28;20048;-74
2023/05/01 04:01:27;;;;;;;12.07;6.10;;;;;;;;;;5023437;28;20044;-73
2023/05/01 04:03:52;;;;;;;14.70;5.95;;;;;;;;;;5041881;28;20895;-72
2023/05/01 04:06:21;;;;;;;10.23;5.13;;;;;;;;;;5014940;28;20132;-72
2023/05/01 04:08:46;;;;;;;13.45;5.40;;;;;;;;;;5014367;28;20040;-73
2023/05/01 04:11:12;;;;;;;10.30;5.38;;;;;;;;;;5015820;28;20406;-73
2023/05/01 04:13:37;;;;;;;11.60;5.43;;;;;;;;;;5014538;28;20462;-73
2023/05/01 04:16:02;;;;;;;10.60;5.63;;;;;;;;;;5013998;28;20189;-72
2023/05/01 04:18:28;;;;;;;13.48;5.93;;;;;;;;;;5047923;28;20044;-73
2023/05/01 04:20:54;;;;;;;10.77;5.55;;;;;;;;;;5026037;28;20162;-73
2023/05/01 04:23:19;;;;;;;8.88;4.60;;;;;;;;;;5027439;28;20042;-73
2023/05/01 04:25:45;;;;;;;7.70;4.00;;;;;;;;;;5022005;28;20045;-72
2023/05/01 04:28:11;;;;;;;9.55;4.80;;;;;;;;;;5029025;28;20049;-72
2023/05/01 04:30:38;;;;;;;8.90;4.35;;;;;;;;;;5026699;28;20043;-73
2023/05/01 04:33:10;;;;;;;8.98;4.40;;;;;;;;;;5029807;28;20572;-73
2023/05/01 04:35:35;;;;;;;9.93;4.70;;;;;;;;;;5022978;28;20030;-72
2023/05/01 04:38:01;;;;;;;8.52;4.65;;;;;;;;;;5022629;28;20071;-74
2023/05/01 04:40:26;;;;;;;11.38;4.95;;;;;;;;;;5054558;28;20087;-72
2023/05/01 04:42:51;;;;;;;11.10;4.93;;;;;;;;;;5023969;28;20033;-73
2023/05/01 04:45:16;;;;;;;9.25;5.32;;;;;;;;;;5025127;28;20120;-74
2023/05/01 04:47:42;;;;;;;10.07;5.20;;;;;;;;;;5029242;28;20052;-74
2023/05/01 04:50:11;;;;;;;9.90;5.75;;;;;;;;;;5024446;28;20489;-72
2023/05/01 04:52:38;;;;;;;13.55;5.40;;;;;;;;;;5027831;28;20045;-72
2023/05/01 04:55:06;;;;;;;10.88;5.88;;;;;;;;;;5021181;28;20068;-74
2023/05/01 04:57:34;;;;;;;10.77;5.57;;;;;;;;;;5022803;28;20065;-74
2023/05/01 05:00:00;;;;;;;12.82;5.63;;;;;;;;;;5023385;28;20434;-76
2023/05/01 05:02:25;;;;;;;12.60;5.80;;;;;;;;;;5011005;28;20041;-76
2023/05/01 05:04:52;;;;;;;15.32;5.90;;;;;;;;;;5052587;28;20122;-74
2023/05/01 05:07:20;;;;;;;10.48;5.82;;;;;;;;;;5028123;28;20570;-73
2023/05/01 05:09:45;;;;;;;9.52;5.28;;;;;;;;;;5013916;28;20099;-72
2023/05/01 05:12:10;;;;;;;12.02;5.78;;;;;;;;;;5017099;28;20187;-74
2023/05/01 05:14:36;;;;;;;10.35;5.68;;;;;;;;;;5013011;28;20048;-73
2023/05/01 05:17:01;;;;;;;14.85;5.88;;;;;;;;;;5046066;28;20036;-74
2023/05/01 05:19:26;;;;;;;12.27;5.93;;;;;;;;;;5016511;28;20040;-73
2023/05/01 05:21:52;;;;;;;12.68;5.22;;;;;;;;;;5009374;28;20148;-75
2023/05/01 05:24:19;;;;;;;11.02;5.60;;;;;;;;;;5010367;28;20047;-77
2023/05/01 05:26:47;;;;;;;15.00;5.65;;;;;;;;;;5007346;28;20398;-76
2023/05/01 05:29:12;;;;;;;13.10;5.10;;;;;;;;;;5006538;28;20047;-75
2023/05/01 05:31:37;;;;;;;9.30;5.07;;;;;;;;;;5008861;28;20037;-76
2023/05/01 05:34:03;;;;;;;10.05;4.82;;;;;;;;;;5040972;28;20987;-74
2023/05/01 05:36:28;;;;;;;13.93;5.15;;;;;;;;;;5004697;28;20041;-77
2023/05/01 05:38:56;;;;;;;13.55;5.60;;;;;;;;;;5006433;28;20049;-75
2023/05/01 05:41:21;;;;;;;10.95;5.38;;;;;;;;;;5003441;28;20033;-77
2023/05/01 05:43:47;;;;;;;10.85;5.07;;;;;;;;;;5006626;28;20124;-77
2023/05/01 05:46:12;;;;;;;13.00;5.90;;;;;;;;;;5041311;28;20042;-76
2023/05/01 05:48:37;;;;;;;11.40;5.07;;;;;;;;;;5009536;28;20106;-77
2023/05/01 05:51:03;;;;;;;12.35;5.13;;;;;;;;;;5011054;28;20119;-75
2023/05/01 05:53:28;;;;;;;10.93;4.50;;;;;;;;;;5033499;28;20040;-76
2023/05/01 05:55:56;;;;;;;7.70;4.38;;;;;;;;;;5015221;28;20041;-77
2023/05/01 05:58:23;;;;;;;8.50;4.35;;;;;;;;;;5024893;28;26052;-75
2023/05/01 06:00:49;;;;;;;11.15;4.63;;;;;;;;;;5045692;28;20742;-77
2023/05/01 06:03:15;;;;;;;10.68;4.30;;;;;;;;;;5013705;28;20053;-75
2023/05/01 06:05:42;;;;;;;11.02;4.78;;;;;;;;;;5023944;28;20043;-74
2023/05/01 06:08:11;;;;;;;12.07;3.83;;;;;;;;;;5049892;28;20053;-77
2023/05/01 06:10:41;;;;;;;10.40;4.32;;;;;;;;;;5047155;28;20037;-75
2023/05/01 06:13:07;;;;;;;9.68;4.22;;;;;;;;;;5023013;28;20138;-76
2023/05/01 06:15:33;;;;;;;9.18;3.97;;;;;;;;;;5014836;28;20041;-73
2023/05/01 06:17:58;;;;;;;10.52;4.53;;;;;;;;;;5049978;28;20039;-70
2023/05/01 06:20:23;;;;;;;9.50;3.92;;;;;;;;;;5008070;28;20037;-76
2023/05/01 06:22:49;;;;;;;8.48;4.15;;;;;;;;;;5011331;28;20029;-76
2023/05/01 06:25:14;;;;;;;10.02;4.10;;;;;;;;;;5013031;28;20514;-76
2023/05/01 06:27:40;;;;;;;9.82;4.47;;;;;;;;;;5043767;28;20037;-75
2023/05/01 06:30:05;;;;;;;12.45;4.70;;;;;;;;;;5044514;28;20036;-75
2023/05/01 06:32:30;;;;;;;13.23;4.63;;;;;;;;;;5011125;28;20036;-75
2023/05/01 06:34:58;;;;;;;17.80;5.40;;;;;;;;;;5016886;28;20053;-76
2023/05/01 06:37:23;;;;;;;16.20;7.45;;;;;;;;;;5009164;28;20060;-77
2023/05/01 06:39:49;;;;;;;20.83;8.30;;;;;;;;;;5010067;28;22206;-76
2023/05/01 06:42:17;;;;;;;19.08;7.78;;;;;;;;;;5009013;28;20038;-78
2023/05/01 06:44:42;;;;;;;14.05;6.50;;;;;;;;;;5009002;28;20419;-75
2023/05/01 06:47:07;;;;;;;10.57;5.72;;;;;;;;;;5010817;28;20036;-76
2023/05/01 06:49:33;;;;;;;10.45;5.97;;;;;;;;;;5026017;28;20042;-78
2023/05/01 06:51:58;;;;;;;11.43;4.95;;;;;;;;;;5041897;28;20091;-78
2023/05/01 06:54:26;;;;;;;10.68;5.43;;;;;;;;;;5010101;28;20055;-75
2023/05/01 06:56:56;;;;;;;10.55;5.60;;;;;;;;;;5013476;28;20029;-75
2023/05/01 06:59:22;;;;;;;9.52;4.55;;;;;;;;;;4997764;28;20128;-76
2023/05/01 07:01:49;;;;;;;9.48;4.93;;;;;;;;;;5011280;28;20082;-76
2023/05/01 07:04:15;;;;;;;11.65;5.93;;;;;;;;;;5009920;28;20855;-76
2023/05/01 07:06:42;;;;;;;11.40;5.00;;;;;;;;;;5009775;28;20064;-76
2023/05/01 07:09:07;;;;;;;11.75;5.30;;;;;;;;;;5011594;28;20034;-77
2023/05/01 07:11:33;;;;;;;9.98;5.22;;;;;;;;;;5008948;28;20030;-75
2023/05/01 07:13:59;;;;;;;11.77;5.55;;;;;;;;;;5007641;28;20083;-77
2023/05/01 07:16:25;;;;;;;11.43;6.20;;;;;;;;;;5041118;28;20106;-75
2023/05/01 07:18:50;;;;;;;10.88;5.85;;;;;;;;;;5009726;28;20061;-76
2023/05/01 07:21:15;;;;;;;12.68;5.22;;;;;;;;;;5041080;28;20033;-76
2023/05/01 07:23:41;;;;;;;9.88;6.18;;;;;;;;;;5018870;28;20041;-78
2023/05/01 07:26:06;;;;;;;14.38;6.60;;;;;;;;;;5011758;28;20044;-76
2023/05/01 07:28:34;;;;;;;22.17;7.07;;;;;;;;;;5024558;28;20132;-76
2023/05/01 07:31:00;;;;;;;24.75;7.45;;;;;;;;;;5005448;28;22094;-76
2023/05/01 07:33:25;;;;;;;24.48;7.47;;;;;;;;;;5027498;28;20045;-77
2023/05/01 07:35:51;;;;;;;30.60;8.43;;;;;;;;;;5012397;28;20746;-76
2023/05/01 07:38:18;;;;;;;27.75;7.93;;;;;;;;;;5010291;28;20114;-78
2023/05/01 07:40:46;;;;;;;25.77;9.00;;;;;;;;;;5041423;28;20041;-77
2023/05/01 07:43:11;;;;;;;32.63;9.43;;;;;;;;;;5006236;28;20037;-77
2023/05/01 07:45:37;;;;;;;28.48;8.70;;;;;;;;;;5014667;28;20059;-76
2023/05/01 07:48:03;;;;;;;17.55;7.63;;;;;;;;;;5020090;28;20037;-77
2023/05/01 07:50:29;;;;;;;23.60;7.30;;;;;;;;;;5008630;28;20040;-76
2023/05/01 07:52:54;;;;;;;17.20;7.07;;;;;;;;;;5012182;28;20121;-78
2023/05/01 07:55:20;;;;;;;14.35;6.25;;;;;;;;;;5009608;28;20100;-77
2023/05/01 07:57:46;;;;;;;19.25;5.70;;;;;;;;;;5039897;28;20657;-75
2023/05/01 08:00:14;;;;;;;13.07;6.40;;;;;;;;;;5041526;28;20181;-75
2023/05/01 08:02:42;;;;;;;22.65;7.60;;;;;;;;;;5042818;28;20037;-77
2023/05/01 08:05:07;;;;;;;13.43;6.25;;;;;;;;;;5021297;28;20108;-76
2023/05/01 08:07:32;;;;;;;18.63;7.32;;;;;;;;;;5009393;28;20118;-77
2023/05/01 08:09:59;;;;;;;16.30;7.40;;;;;;;;;;5012031;28;20037;-76
2023/05/01 08:12:24;;;;;;;13.82;6.15;;;;;;;;;;5006990;28;22209;-78
2023/05/01 08:14:51;;;;;;;16.52;6.30;;;;;;;;;;5008202;28;22322;-77
2023/05/01 08:17:16;;;;;;;17.38;7.13;;;;;;;;;;5009254;28;20075;-74
2023/05/01 08:19:41;;;;;;;16.27;6.20;;;;;;;;;;5040523;28;20117;-77
2023/05/01 08:22:06;;;;;;;15.07;6.55;;;;;;;;;;5042792;28;20037;-75
2023/05/01 08:24:32;;;;;;;14.80;6.63;;;;;;;;;;5008555;28;20999;-75
2023/05/01 08:26:59;;;;;;;15.00;6.20;;;;;;;;;;5039402;28;20057;-76
2023/05/01 08:29:25;;;;;;;14.20;5.93;;;;;;;;;;5008584;28;20065;-76
2023/05/01 08:31:50;;;;;;;15.73;5.75;;;;;;;;;;5008777;28;20037;-76
2023/05/01 08:34:16;;;;;;;16.85;6.18;;;;;;;;;;5011120;28;20084;-77
2023/05/01 08:36:41;;;;;;;14.13;6.55;;;;;;;;;;5010924;28;20041;-76
2023/05/01 08:39:08;;;;;;;12.95;5.93;;;;;;;;;;5010316;28;20036;-76
2023/05/01 08:41:34;;;;;;;15.05;5.82;;;;;;;;;;5007469;28;20033;-77
2023/05/01 08:44:00;;;;;;;16.35;6.60;;;;;;;;;;5007814;28;20052;-76
2023/05/01 08:46:44;;;;;;;13.77;6.07;;;;;;;;;;5011788;28;20033;-75
2023/05/01 08:49:14;;;;;;;11.88;5.82;;;;;;;;;;5008590;28;20044;-75
2023/05/01 08:51:40;;;;;;;13.43;6.00;;;;;;;;;;5004290;28;20044;-72
2023/05/01 08:54:07;;;;;;;15.55;6.20;;;;;;;;;;5003284;28;20032;-76
2023/05/01 08:56:34;;;;;;;11.18;5.65;;;;;;;;;;5003345;28;20049;-80
2023/05/01 08:59:02;;;;;;;13.38;5.75;;;;;;;;;;5045247;28;20029;-77
2023/05/01 09:01:28;;;;;;;12.38;5.80;;;;;;;;;;5007557;28;20037;-78
2023/05/01 09:03:53;;;;;;;17.10;6.10;;;;;;;;;;5008159;28;20626;-76
2023/05/01 09:06:19;;;;;;;10.60;5.65;;;;;;;;;;5012298;28;20033;-74
2023/05/01 09:08:44;;;;;;;11.98;5.35;;;;;;;;;;5014157;28;20030;-74
2023/05/01 09:11:10;;;;;;;14.50;5.47;;;;;;;;;;5011133;28;20086;-76
2023/05/01 09:13:36;;;;;;;12.68;5.63;;;;;;;;;;5007391;28;20045;-77
2023/05/01 09:16:03;;;;;;;14.05;6.30;;;;;;;;;;5005946;28;20318;-75
2023/05/01 09:18:30;;;;;;;11.32;5.72;;;;;;;;;;5009590;28;20103;-77
2023/05/01 09:20:56;;;;;;;14.20;5.00;;;;;;;;;;5039231;28;20076;-75
2023/05/01 09:23:24;;;;;;;10.68;4.88;;;;;;;;;;5006759;28;20121;-77
2023/05/01 09:25:50;;;;;;;10.90;4.72;;;;;;;;;;5009491;28;20107;-75
2023/05/01 09:28:17;;;;;;;11.38;4.47;;;;;;;;;;5039248;28;20038;-78
2023/05/01 09:30:43;;;;;;;10.95;4.78;;;;;;;;;;5016040;28;20103;-77
2023/05/01 09:33:09;;;;;;;9.80;4.57;;;;;;;;;;5011085;28;20694;-77
2023/05/01 09:36:07;;;;;;;11.90;3.92;;;;;;;;;;5040883;28;20482;-77
2023/05/01 09:38:42;;;;;;;9.05;4.43;;;;;;;;;;4987145;28;20060;-76
2023/05/01 09:41:07;;;;;;;8.90;4.28;;;;;;;;;;5009012;28;20770;-75
2023/05/01 09:43:33;;;;;;;12.85;4.30;;;;;;;;;;5039289;28;20190;-74
2023/05/01 09:45:58;;;;;;;12.90;4.03;;;;;;;;;;5016200;28;20052;-75
2023/05/01 09:48:26;;;;;;;8.68;4.13;;;;;;;;;;5028122;28;20033;-75
2023/05/01 09:50:52;;;;;;;9.10;4.00;;;;;;;;;;5008273;28;20044;-75
2023/05/01 09:53:34;;;;;;;10.68;3.80;;;;;;;;;;5016370;28;20535;-76
2023/05/01 09:56:00;;;;;;;10.07;4.32;;;;;;;;;;5039944;28;20195;-73
2023/05/01 09:58:26;;;;;;;11.07;4.03;;;;;;;;;;5008876;28;21535;-74
2023/05/01 10:00:52;;;;;;;7.95;4.10;;;;;;;;;;5008076;28;20243;-74
2023/05/01 10:03:17;;;;;;;7.68;3.45;;;;;;;;;;5015374;28;20037;-75
2023/05/01 10:05:43;;;;;;;10.55;3.83;;;;;;;;;;5009385;28;20777;-76
2023/05/01 10:08:13;;;;;;;8.05;4.05;;;;;;;;;;5008062;28;20049;-77
2023/05/01 10:10:45;;;;;;;7.82;4.25;;;;;;;;;;5017292;28;20045;-76
2023/05/01 10:13:15;;;;;;;9.52;4.32;;;;;;;;;;4991756;28;20037;-75
2023/05/01 10:15:40;;;;;;;10.07;3.70;;;;;;;;;;4988967;28;20071;-76
2023/05/01 10:18:06;;;;;;;11.82;4.28;;;;;;;;;;4987341;28;20470;-77
2023/05/01 10:20:31;;;;;;;6.32;3.70;;;;;;;;;;4987344;28;20528;-77
2023/05/01 10:22:58;;;;;;;9.95;4.30;;;;;;;;;;4990972;28;20072;-77
2023/05/01 10:25:24;;;;;;;8.60;4.60;;;;;;;;;;4985291;28;20041;-77
2023/05/01 10:27:53;;;;;;;8.43;4.45;;;;;;;;;;4989579;28;20034;-76
2023/05/01 10:30:18;;;;;;;10.38;5.00;;;;;;;;;;4989652;28;20034;-78
2023/05/01 10:32:44;;;;;;;10.95;5.22;;;;;;;;;;4989079;28;20037;-76
2023/05/01 10:35:20;;;;;;;8.25;4.88;;;;;;;;;;4992103;28;20053;-76
2023/05/01 10:37:46;;;;;;;10.68;5.03;;;;;;;;;;5021004;28;20034;-77
2023/05/01 10:40:35;;;;;;;11.05;4.90;;;;;;;;;;4992118;28;20041;-78
2023/05/01 10:43:12;;;;;;;11.05;5.75;;;;;;;;;;4988261;28;20042;-76
2023/05/01 10:45:38;;;;;;;11.13;5.15;;;;;;;;;;5018181;28;20069;-78
2023/05/01 10:48:03;;;;;;;13.70;5.90;;;;;;;;;;4989202;28;20345;-78
2023/05/01 10:50:28;;;;;;;11.43;5.75;;;;;;;;;;4987881;28;20168;-79
2023/05/01 10:53:14;;;;;;;16.80;6.60;;;;;;;;;;5020963;28;20073;-78
2023/05/01 10:55:43;;;;;;;11.63;6.40;;;;;;;;;;5021898;28;20092;-77
2023/05/01 10:58:09;;;;;;;9.68;6.22;;;;;;;;;;5020568;28;20033;-78
2023/05/01 11:00:36;;;;;;;13.27;6.90;;;;;;;;;;4991331;28;20845;-79
2023/05/01 11:03:23;;;;;;;10.93;7.65;;;;;;;;;;4993056;28;20076;-78
2023/05/01 11:06:03;;;;;;;15.98;8.43;;;;;;;;;;4987357;28;20434;-76
2023/05/01 11:08:32;;;;;;;14.73;9.27;;;;;;;;;;4991294;28;20045;-77
2023/05/01 11:11:17;;;;;;;16.98;10.73;;;;;;;;;;4987924;28;20044;-75
2023/05/01 11:14:02;;;;;;;16.88;11.00;;;;;;;;;;4995411;28;20034;-77
2023/05/01 11:16:40;;;;;;;14.02;10.80;;;;;;;;;;4988119;28;20037;-77
2023/05/01 11:19:21;;;;;;;17.25;10.75;;;;;;;;;;4988172;28;20154;-77
2023/05/01 11:21:47;;;;;;;16.25;10.40;;;;;;;;;;4990830;28;20096;-76
2023/05/01 11:24:17;;;;;;;15.10;11.13;;;;;;;;;;5019167;28;20038;-76
2023/05/01 11:26:43;;;;;;;14.27;10.88;;;;;;;;;;4988100;28;20034;-77
2023/05/01 11:29:09;;;;;;;13.68;10.90;;;;;;;;;;4989301;28;20652;-77
2023/05/01 11:31:35;;;;;;;16.90;11.65;;;;;;;;;;4988373;28;20030;-76
2023/05/01 11:34:00;;;;;;;18.90;10.88;;;;;;;;;;4991864;28;20057;-77
2023/05/01 11:36:27;;;;;;;17.10;11.02;;;;;;;;;;4987276;28;20061;-76
2023/05/01 11:38:55;;;;;;;18.30;11.40;;;;;;;;;;4984871;28;20041;-76
2023/05/01 11:41:20;;;;;;;15.52;10.88;;;;;;;;;;4987918;28;20056;-77
2023/05/01 11:43:50;;;;;;;17.65;11.07;;;;;;;;;;4984785;28;20235;-76
2023/05/01 11:46:28;;;;;;;15.77;11.60;;;;;;;;;;4988592;28;20097;-75
2023/05/01 11:48:55;;;;;;;16.35;10.90;;;;;;;;;;4990115;28;20034;-75
2023/05/01 11:51:20;;;;;;;14.77;10.45;;;;;;;;;;4990168;28;20159;-76
2023/05/01 11:54:04;;;;;;;14.00;10.27;;;;;;;;;;4994248;28;20080;-76
2023/05/01 11:56:30;;;;;;;16.38;11.10;;;;;;;;;;5019503;28;20034;-75
2023/05/01 11:58:57;;;;;;;16.10;11.00;;;;;;;;;;4990288;28;20049;-74
2023/05/01 12:01:32;;;;;;;16.95;10.85;;;;;;;;;;4991179;28;20049;-74
2023/05/01 12:03:58;;;;;;;16.65;11.18;;;;;;;;;;4998550;28;20030;-74
2023/05/01 12:06:34;;;;;;;13.43;10.73;;;;;;;;;;4991969;28;22272;-74
2023/05/01 12:09:00;;;;;;;12.73;10.18;;;;;;;;;;4987728;28;20068;-76
2023/05/01 12:11:26;;;;;;;13.88;9.13;;;;;;;;;;4990217;28;20121;-72
2023/05/01 12:13:51;;;;;;;12.55;9.40;;;;;;;;;;4987374;28;20672;-75
2023/05/01 12:16:17;;;;;;;13.55;8.82;;;;;;;;;;4989043;28;20550;-75
2023/05/01 12:18:42;;;;;;;13.20;9.25;;;;;;;;;;4989261;28;20717;-74
2023/05/01 12:21:13;;;;;;;11.65;8.93;;;;;;;;;;4985894;28;20037;-76
2023/05/01 12:23:39;;;;;;;13.45;9.77;;;;;;;;;;5008670;28;20025;-74
2023/05/01 12:26:24;;;;;;;11.80;8.73;;;;;;;;;;5012365;28;20045;-76
2023/05/01 12:28:56;;;;;;;13.23;8.77;;;;;;;;;;5007070;28;20047;-77
2023/05/01 12:31:21;;;;;;;14.35;8.50;;;;;;;;;;5033862;28;20048;-75
2023/05/01 12:33:53;;;;;;;12.70;8.63;;;;;;;;;;4994580;28;20053;-76
2023/05/01 12:36:23;;;;;;;13.93;8.50;;;;;;;;;;5034509;28;20040;-74
2023/05/01 12:38:56;;;;;;;13.93;8.45;;;;;;;;;;5010761;28;20037;-76
2023/05/01 12:41:31;;;;;;;9.63;7.72;;;;;;;;;;5014320;28;20057;-75
2023/05/01 12:43:56;;;;;;;11.13;7.63;;;;;;;;;;5039789;28;20095;-74
2023/05/01 12:46:22;;;;;;;11.45;8.00;;;;;;;;;;5042749;28;20613;-75
2023/05/01 12:48:49;;;;;;;14.48;8.55;;;;;;;;;;5009015;28;20112;-74
2023/05/01 12:51:21;;;;;;;17.25;8.35;;;;;;;;;;5011988;28;20064;-75
2023/05/01 12:53:47;;;;;;;11.75;8.75;;;;;;;;;;5015430;28;20099;-74
2023/05/01 12:56:23;;;;;;;13.77;9.02;;;;;;;;;;5009450;28;20040;-77
2023/05/01 12:58:49;;;;;;;13.35;8.90;;;;;;;;;;5010577;28;20555;-77
2023/05/01 13:01:22;;;;;;;13.60;9.90;;;;;;;;;;5008457;28;20033;-78
2023/05/01 13:03:47;;;;;;;13.25;9.80;;;;;;;;;;5038401;28;20462;-76
2023/05/01 13:06:18;;;;;;;15.63;10.88;;;;;;;;;;5012094;28;20116;-74
2023/05/01 13:08:44;;;;;;;14.68;10.00;;;;;;;;;;5020613;28;20073;-76
2023/05/01 13:11:11;;;;;;;13.88;9.60;;;;;;;;;;5027491;28;20037;-77
2023/05/01 13:13:37;;;;;;;12.02;9.63;;;;;;;;;;5004300;28;20103;-76
2023/05/01 13:16:04;;;;;;;15.63;10.80;;;;;;;;;;5042443;28;20500;-75
2023/05/01 13:18:29;;;;;;;15.75;11.73;;;;;;;;;;5012044;28;20110;-73
2023/05/01 13:21:03;;;;;;;16.25;11.60;;;;;;;;;;5015387;28;20116;-75
2023/05/01 13:23:29;;;;;;;17.67;11.07;;;;;;;;;;5012454;28;20524;-75
2023/05/01 13:25:57;;;;;;;15.60;11.40;;;;;;;;;;5043908;28;20033;-77
2023/05/01 13:28:25;;;;;;;15.70;11.98;;;;;;;;;;5042276;28;20040;-75
2023/05/01 13:30:53;;;;;;;15.13;11.95;;;;;;;;;;5011975;28;20450;-75
2023/05/01 13:33:18;;;;;;;19.63;11.45;;;;;;;;;;5041939;28;20032;-76
2023/05/01 13:35:43;;;;;;;17.20;12.02;;;;;;;;;;5010076;28;20879;-75
2023/05/01 13:38:11;;;;;;;15.45;12.18;;;;;;;;;;5010901;28;20047;-71
2023/05/01 13:40:38;;;;;;;14.38;11.90;;;;;;;;;;5011851;28;20304;-74
2023/05/01 13:43:06;;;;;;;15.52;11.50;;;;;;;;;;5007958;28;20033;-76
2023/05/01 13:45:31;;;;;;;17.02;12.02;;;;;;;;;;5030663;28;20041;-76
2023/05/01 13:47:56;;;;;;;15.18;11.18;;;;;;;;;;4989549;28;20030;-76
2023/05/01 13:50:22;;;;;;;14.52;11.73;;;;;;;;;;4988653;28;20029;-73
2023/05/01 13:52:47;;;;;;;17.20;12.30;;;;;;;;;;4986337;28;20038;-73
2023/05/01 13:55:13;;;;;;;15.93;11.13;;;;;;;;;;5017863;28;20034;-74
2023/05/01 13:57:42;;;;;;;14.07;12.02;;;;;;;;;;4987292;28;20034;-73
2023/05/01 14:00:08;;;;;;;17.63;12.15;;;;;;;;;;5017907;28;20042;-73
2023/05/01 14:02:33;;;;;;;14.93;11.15;;;;;;;;;;4986330;28;20515;-73
2023/05/01 14:04:58;;;;;;;15.20;11.18;;;;;;;;;;4986917;28;20064;-75
2023/05/01 14:07:24;;;;;;;17.70;12.00;;;;;;;;;;5013868;28;20095;-77
2023/05/01 14:09:53;;;;;;;14.90;12.15;;;;;;;;;;4994517;28;20034;-74
2023/05/01 14:12:19;;;;;;;14.30;12.05;;;;;;;;;;4989152;28;20935;-73
2023/05/01 14:14:47;;;;;;;15.95;11.77;;;;;;;;;;5009301;28;20180;-73
2023/05/01 14:17:13;;;;;;;15.77;12.80;;;;;;;;;;5009210;28;20045;-75
2023/05/01 14:19:38;;;;;;;15.52;12.25;;;;;;;;;;5011774;28;20471;-74
2023/05/01 14:22:06;;;;;;;14.45;12.18;;;;;;;;;;5012464;28;20033;-73
2023/05/01 14:24:34;;;;;;;15.68;12.43;;;;;;;;;;5014177;28;20068;-75
2023/05/01 14:27:00;;;;;;;14.57;12.13;;;;;;;;;;5012652;28;20072;-72
2023/05/01 14:29:26;;;;;;;14.35;11.55;;;;;;;;;;5011056;28;20236;-75
2023/05/01 14:31:53;;;;;;;15.48;12.10;;;;;;;;;;5040780;28;20120;-74
2023/05/01 14:34:19;;;;;;;15.60;11.73;;;;;;;;;;5008959;28;20045;-73